sensor_id;sensor_type;location;lat;lon;timestamp;P1;durP1;ratioP1;P2;durP2;ratioP2
49972;SDS011;65693;49.798;10.968;2023-04-09T00:00:36;7.15;;;5.20;;
49972;SDS011;65693;49.798;10.968;2023-04-09T00:03:03;6.50;;;4.63;;
49972;SDS011;65693;49.798;10.968;2023-04-09T00:05:29;6.57;;;4.82;;
49972;SDS011;65693;49.798;10.968;2023-04-09T00:07:56;7.18;;;5.32;;
49972;SDS011;65693;49.798;10.968;2023-04-09T00:10:22;8.27;;;5.10;;
49972;SDS011;65693;49.798;10.968;2023-04-09T00:12:48;7.97;;;5.30;;
49972;SDS011;65693;49.798;10.968;2023-04-09T00:15:16;7.90;;;5.43;;
49972;SDS011;65693;49.798;10.968;2023-04-09T00:17:43;6.47;;;4.55;;
49972;SDS011;65693;49.798;10.968;2023-04-09T00:20:10;8.70;;;5.38;;
49972;SDS011;65693;49.798;10.968;2023-04-09T00:22:36;7.10;;;5.28;;
49972;SDS011;65693;49.798;10.968;2023-04-09T00:25:03;7.75;;;5.20;;
49972;SDS011;65693;49.798;10.968;2023-04-09T00:27:30;7.18;;;5.10;;
49972;SDS011;65693;49.798;10.968;2023-04-09T00:29:56;6.97;;;4.90;;
49972;SDS011;65693;49.798;10.968;2023-04-09T00:32:24;6.85;;;4.72;;
49972;SDS011;65693;49.798;10.968;2023-04-09T00:34:50;8.70;;;5.95;;
49972;SDS011;65693;49.798;10.968;2023-04-09T00:37:17;8.13;;;5.55;;
49972;SDS011;65693;49.798;10.968;2023-04-09T00:39:43;7.90;;;5.53;;
49972;SDS011;65693;49.798;10.968;2023-04-09T00:42:10;6.82;;;4.70;;
49972;SDS011;65693;49.798;10.968;2023-04-09T00:44:37;7.05;;;5.22;;
49972;SDS011;65693;49.798;10.968;2023-04-09T00:47:03;6.72;;;5.00;;
49972;SDS011;65693;49.798;10.968;2023-04-09T00:49:31;6.72;;;4.85;;
49972;SDS011;65693;49.798;10.968;2023-04-09T00:51:58;7.78;;;5.40;;
49972;SDS011;65693;49.798;10.968;2023-04-09T00:54:25;7.07;;;5.20;;
49972;SDS011;65693;49.798;10.968;2023-04-09T00:56:52;6.57;;;4.82;;
49972;SDS011;65693;49.798;10.968;2023-04-09T00:59:20;7.95;;;5.43;;
49972;SDS011;65693;49.798;10.968;2023-04-09T01:01:46;7.75;;;5.05;;
49972;SDS011;65693;49.798;10.968;2023-04-09T01:04:13;7.18;;;5.18;;
49972;SDS011;65693;49.798;10.968;2023-04-09T01:06:42;8.05;;;5.25;;
49972;SDS011;65693;49.798;10.968;2023-04-09T01:09:17;7.95;;;5.70;;
49972;SDS011;65693;49.798;10.968;2023-04-09T01:11:50;6.60;;;4.80;;
49972;SDS011;65693;49.798;10.968;2023-04-09T01:14:28;7.80;;;5.07;;
49972;SDS011;65693;49.798;10.968;2023-04-09T01:16:59;8.98;;;6.00;;
49972;SDS011;65693;49.798;10.968;2023-04-09T01:19:34;7.45;;;5.70;;
49972;SDS011;65693;49.798;10.968;2023-04-09T01:22:19;8.98;;;5.75;;
49972;SDS011;65693;49.798;10.968;2023-04-09T01:24:56;7.60;;;5.50;;
49972;SDS011;65693;49.798;10.968;2023-04-09T01:27:33;6.63;;;4.88;;
49972;SDS011;65693;49.798;10.968;2023-04-09T01:30:08;7.50;;;5.28;;
49972;SDS011;65693;49.798;10.968;2023-04-09T01:32:35;7.60;;;5.47;;
49972;SDS011;65693;49.798;10.968;2023-04-09T01:35:04;7.35;;;5.25;;
49972;SDS011;65693;49.798;10.968;2023-04-09T01:37:33;7.00;;;4.93;;
49972;SDS011;65693;49.798;10.968;2023-04-09T01:40:00;7.32;;;5.43;;
49972;SDS011;65693;49.798;10.968;2023-04-09T01:42:29;7.82;;;5.30;;
49972;SDS011;65693;49.798;10.968;2023-04-09T01:44:56;8.82;;;6.13;;
49972;SDS011;65693;49.798;10.968;2023-04-09T01:47:25;8.07;;;5.18;;
49972;SDS011;65693;49.798;10.968;2023-04-09T01:49:52;8.20;;;5.65;;
49972;SDS011;65693;49.798;10.968;2023-04-09T01:52:19;7.53;;;5.10;;
49972;SDS011;65693;49.798;10.968;2023-04-09T01:54:45;8.02;;;5.68;;
49972;SDS011;65693;49.798;10.968;2023-04-09T01:57:12;8.00;;;5.32;;
49972;SDS011;65693;49.798;10.968;2023-04-09T01:59:38;8.27;;;5.43;;
49972;SDS011;65693;49.798;10.968;2023-04-09T02:02:05;7.85;;;5.53;;
49972;SDS011;65693;49.798;10.968;2023-04-09T02:04:37;7.03;;;5.60;;
49972;SDS011;65693;49.798;10.968;2023-04-09T02:07:08;7.88;;;5.40;;
49972;SDS011;65693;49.798;10.968;2023-04-09T02:09:38;8.18;;;5.47;;
49972;SDS011;65693;49.798;10.968;2023-04-09T02:12:05;8.50;;;5.80;;
49972;SDS011;65693;49.798;10.968;2023-04-09T02:14:37;7.15;;;5.45;;
49972;SDS011;65693;49.798;10.968;2023-04-09T02:17:05;8.07;;;5.43;;
49972;SDS011;65693;49.798;10.968;2023-04-09T02:19:39;8.13;;;5.25;;
49972;SDS011;65693;49.798;10.968;2023-04-09T02:22:07;7.53;;;5.55;;
49972;SDS011;65693;49.798;10.968;2023-04-09T02:24:33;7.78;;;5.60;;
49972;SDS011;65693;49.798;10.968;2023-04-09T02:27:00;8.40;;;6.03;;
49972;SDS011;65693;49.798;10.968;2023-04-09T02:29:27;7.68;;;5.72;;
49972;SDS011;65693;49.798;10.968;2023-04-09T02:31:53;8.10;;;5.30;;
49972;SDS011;65693;49.798;10.968;2023-04-09T02:34:20;8.30;;;5.85;;
49972;SDS011;65693;49.798;10.968;2023-04-09T02:36:47;8.32;;;5.97;;
49972;SDS011;65693;49.798;10.968;2023-04-09T02:39:14;8.80;;;5.72;;
49972;SDS011;65693;49.798;10.968;2023-04-09T02:41:40;7.22;;;5.47;;
49972;SDS011;65693;49.798;10.968;2023-04-09T02:44:07;9.13;;;5.40;;
49972;SDS011;65693;49.798;10.968;2023-04-09T02:46:33;7.47;;;5.28;;
49972;SDS011;65693;49.798;10.968;2023-04-09T02:49:00;7.72;;;5.40;;
49972;SDS011;65693;49.798;10.968;2023-04-09T02:51:26;9.23;;;5.82;;
49972;SDS011;65693;49.798;10.968;2023-04-09T02:53:54;7.82;;;5.75;;
49972;SDS011;65693;49.798;10.968;2023-04-09T02:56:20;9.55;;;6.15;;
49972;SDS011;65693;49.798;10.968;2023-04-09T02:58:47;7.97;;;5.57;;
49972;SDS011;65693;49.798;10.968;2023-04-09T03:01:17;9.05;;;5.93;;
49972;SDS011;65693;49.798;10.968;2023-04-09T03:03:44;7.70;;;5.63;;
49972;SDS011;65693;49.798;10.968;2023-04-09T03:06:10;8.45;;;5.75;;
49972;SDS011;65693;49.798;10.968;2023-04-09T03:08:37;7.70;;;5.63;;
49972;SDS011;65693;49.798;10.968;2023-04-09T03:11:05;8.00;;;5.65;;
49972;SDS011;65693;49.798;10.968;2023-04-09T03:13:31;9.40;;;5.65;;
49972;SDS011;65693;49.798;10.968;2023-04-09T03:15:57;8.73;;;6.03;;
49972;SDS011;65693;49.798;10.968;2023-04-09T03:18:24;7.75;;;5.80;;
49972;SDS011;65693;49.798;10.968;2023-04-09T03:20:50;8.02;;;5.63;;
49972;SDS011;65693;49.798;10.968;2023-04-09T03:23:16;8.65;;;5.65;;
49972;SDS011;65693;49.798;10.968;2023-04-09T03:25:43;8.52;;;5.60;;
49972;SDS011;65693;49.798;10.968;2023-04-09T03:28:11;8.52;;;5.90;;
49972;SDS011;65693;49.798;10.968;2023-04-09T03:30:37;8.98;;;5.97;;
49972;SDS011;65693;49.798;10.968;2023-04-09T03:33:03;9.18;;;6.35;;
49972;SDS011;65693;49.798;10.968;2023-04-09T03:35:30;9.85;;;6.05;;
49972;SDS011;65693;49.798;10.968;2023-04-09T03:37:56;7.78;;;5.45;;
49972;SDS011;65693;49.798;10.968;2023-04-09T03:40:23;9.57;;;6.35;;
49972;SDS011;65693;49.798;10.968;2023-04-09T03:42:49;8.07;;;5.85;;
49972;SDS011;65693;49.798;10.968;2023-04-09T03:45:17;8.88;;;5.68;;
49972;SDS011;65693;49.798;10.968;2023-04-09T03:47:43;8.70;;;5.82;;
49972;SDS011;65693;49.798;10.968;2023-04-09T03:50:10;8.23;;;5.43;;
49972;SDS011;65693;49.798;10.968;2023-04-09T03:52:36;8.73;;;5.72;;
49972;SDS011;65693;49.798;10.968;2023-04-09T03:55:02;7.93;;;5.82;;
49972;SDS011;65693;49.798;10.968;2023-04-09T03:57:29;9.07;;;6.35;;
49972;SDS011;65693;49.798;10.968;2023-04-09T03:59:56;8.80;;;5.75;;
49972;SDS011;65693;49.798;10.968;2023-04-09T04:02:24;9.18;;;5.93;;
49972;SDS011;65693;49.798;10.968;2023-04-09T04:04:50;8.38;;;6.30;;
49972;SDS011;65693;49.798;10.968;2023-04-09T04:07:17;9.70;;;6.80;;
49972;SDS011;65693;49.798;10.968;2023-04-09T04:09:44;9.20;;;6.43;;
49972;SDS011;65693;49.798;10.968;2023-04-09T04:12:10;8.15;;;5.85;;
49972;SDS011;65693;49.798;10.968;2023-04-09T04:14:37;7.13;;;5.63;;
49972;SDS011;65693;49.798;10.968;2023-04-09T04:17:03;7.88;;;5.80;;
49972;SDS011;65693;49.798;10.968;2023-04-09T04:19:31;8.57;;;6.38;;
49972;SDS011;65693;49.798;10.968;2023-04-09T04:21:57;7.78;;;5.90;;
49972;SDS011;65693;49.798;10.968;2023-04-09T04:24:23;8.07;;;6.05;;
49972;SDS011;65693;49.798;10.968;2023-04-09T04:26:50;8.32;;;5.53;;
49972;SDS011;65693;49.798;10.968;2023-04-09T04:29:16;9.07;;;6.22;;
49972;SDS011;65693;49.798;10.968;2023-04-09T04:31:43;8.68;;;6.28;;
49972;SDS011;65693;49.798;10.968;2023-04-09T04:34:09;9.38;;;6.28;;
49972;SDS011;65693;49.798;10.968;2023-04-09T04:36:37;8.52;;;6.50;;
49972;SDS011;65693;49.798;10.968;2023-04-09T04:39:03;9.75;;;6.55;;
49972;SDS011;65693;49.798;10.968;2023-04-09T04:41:30;8.77;;;6.30;;
49972;SDS011;65693;49.798;10.968;2023-04-09T04:43:56;7.57;;;5.65;;
49972;SDS011;65693;49.798;10.968;2023-04-09T04:46:23;9.27;;;6.60;;
49972;SDS011;65693;49.798;10.968;2023-04-09T04:48:49;8.90;;;6.72;;
49972;SDS011;65693;49.798;10.968;2023-04-09T04:51:15;8.45;;;5.68;;
49972;SDS011;65693;49.798;10.968;2023-04-09T04:53:43;8.13;;;6.47;;
49972;SDS011;65693;49.798;10.968;2023-04-09T04:56:11;8.35;;;6.05;;
49972;SDS011;65693;49.798;10.968;2023-04-09T04:58:38;8.32;;;6.00;;
49972;SDS011;65693;49.798;10.968;2023-04-09T05:01:04;9.32;;;6.03;;
49972;SDS011;65693;49.798;10.968;2023-04-09T05:03:31;8.38;;;6.10;;
49972;SDS011;65693;49.798;10.968;2023-04-09T05:05:57;8.63;;;6.28;;
49972;SDS011;65693;49.798;10.968;2023-04-09T05:08:23;8.85;;;6.25;;
49972;SDS011;65693;49.798;10.968;2023-04-09T05:10:52;9.00;;;6.30;;
49972;SDS011;65693;49.798;10.968;2023-04-09T05:13:20;9.13;;;6.20;;
49972;SDS011;65693;49.798;10.968;2023-04-09T05:15:46;8.68;;;6.35;;
49972;SDS011;65693;49.798;10.968;2023-04-09T05:18:12;9.93;;;6.38;;
49972;SDS011;65693;49.798;10.968;2023-04-09T05:20:39;8.98;;;6.38;;
49972;SDS011;65693;49.798;10.968;2023-04-09T05:23:05;8.93;;;6.05;;
49972;SDS011;65693;49.798;10.968;2023-04-09T05:25:34;10.23;;;6.32;;
49972;SDS011;65693;49.798;10.968;2023-04-09T05:28:01;8.95;;;6.15;;
49972;SDS011;65693;49.798;10.968;2023-04-09T05:30:28;8.88;;;6.60;;
49972;SDS011;65693;49.798;10.968;2023-04-09T05:32:54;9.13;;;6.40;;
49972;SDS011;65693;49.798;10.968;2023-04-09T05:35:21;9.35;;;6.82;;
49972;SDS011;65693;49.798;10.968;2023-04-09T05:37:47;10.63;;;7.32;;
49972;SDS011;65693;49.798;10.968;2023-04-09T05:40:13;10.00;;;6.20;;
49972;SDS011;65693;49.798;10.968;2023-04-09T05:42:40;8.98;;;6.50;;
49972;SDS011;65693;49.798;10.968;2023-04-09T05:45:08;8.93;;;6.53;;
49972;SDS011;65693;49.798;10.968;2023-04-09T05:47:35;9.30;;;6.65;;
49972;SDS011;65693;49.798;10.968;2023-04-09T05:50:02;10.00;;;6.35;;
49972;SDS011;65693;49.798;10.968;2023-04-09T05:52:29;8.73;;;6.13;;
49972;SDS011;65693;49.798;10.968;2023-04-09T05:54:56;11.80;;;7.05;;
49972;SDS011;65693;49.798;10.968;2023-04-09T05:57:22;8.60;;;6.50;;
49972;SDS011;65693;49.798;10.968;2023-04-09T05:59:49;8.02;;;5.88;;
49972;SDS011;65693;49.798;10.968;2023-04-09T06:02:16;10.07;;;6.32;;
49972;SDS011;65693;49.798;10.968;2023-04-09T06:04:43;9.63;;;7.00;;
49972;SDS011;65693;49.798;10.968;2023-04-09T06:07:09;8.63;;;6.30;;
49972;SDS011;65693;49.798;10.968;2023-04-09T06:09:35;10.68;;;6.07;;
49972;SDS011;65693;49.798;10.968;2023-04-09T06:12:02;9.30;;;6.55;;
49972;SDS011;65693;49.798;10.968;2023-04-09T06:14:29;10.10;;;6.50;;
49972;SDS011;65693;49.798;10.968;2023-04-09T06:16:57;9.70;;;6.68;;
49972;SDS011;65693;49.798;10.968;2023-04-09T06:19:25;8.98;;;6.40;;
49972;SDS011;65693;49.798;10.968;2023-04-09T06:21:51;9.75;;;6.43;;
49972;SDS011;65693;49.798;10.968;2023-04-09T06:24:17;9.85;;;6.78;;
49972;SDS011;65693;49.798;10.968;2023-04-09T06:26:44;9.15;;;6.43;;
49972;SDS011;65693;49.798;10.968;2023-04-09T06:29:11;10.07;;;6.85;;
49972;SDS011;65693;49.798;10.968;2023-04-09T06:31:37;10.73;;;6.93;;
49972;SDS011;65693;49.798;10.968;2023-04-09T06:34:03;8.63;;;6.22;;
49972;SDS011;65693;49.798;10.968;2023-04-09T06:36:32;9.20;;;6.40;;
49972;SDS011;65693;49.798;10.968;2023-04-09T06:39:01;9.98;;;6.85;;
49972;SDS011;65693;49.798;10.968;2023-04-09T06:41:28;9.68;;;6.80;;
49972;SDS011;65693;49.798;10.968;2023-04-09T06:43:54;9.05;;;6.63;;
49972;SDS011;65693;49.798;10.968;2023-04-09T06:46:21;9.27;;;6.18;;
49972;SDS011;65693;49.798;10.968;2023-04-09T06:48:48;8.90;;;6.57;;
49972;SDS011;65693;49.798;10.968;2023-04-09T06:51:14;9.80;;;6.60;;
49972;SDS011;65693;49.798;10.968;2023-04-09T06:53:42;8.75;;;6.40;;
49972;SDS011;65693;49.798;10.968;2023-04-09T06:56:09;9.73;;;6.68;;
49972;SDS011;65693;49.798;10.968;2023-04-09T06:58:35;10.57;;;7.07;;
49972;SDS011;65693;49.798;10.968;2023-04-09T07:01:02;9.35;;;6.80;;
49972;SDS011;65693;49.798;10.968;2023-04-09T07:03:28;9.18;;;6.70;;
49972;SDS011;65693;49.798;10.968;2023-04-09T07:05:55;10.63;;;6.38;;
49972;SDS011;65693;49.798;10.968;2023-04-09T07:08:21;9.93;;;6.40;;
49972;SDS011;65693;49.798;10.968;2023-04-09T07:10:49;10.10;;;6.80;;
49972;SDS011;65693;49.798;10.968;2023-04-09T07:13:15;9.43;;;6.53;;
49972;SDS011;65693;49.798;10.968;2023-04-09T07:15:42;8.38;;;6.18;;
49972;SDS011;65693;49.798;10.968;2023-04-09T07:18:08;10.38;;;6.50;;
49972;SDS011;65693;49.798;10.968;2023-04-09T07:20:35;9.93;;;6.30;;
49972;SDS011;65693;49.798;10.968;2023-04-09T07:23:01;9.52;;;6.57;;
49972;SDS011;65693;49.798;10.968;2023-04-09T07:25:27;9.18;;;6.88;;
49972;SDS011;65693;49.798;10.968;2023-04-09T07:27:55;9.80;;;6.60;;
49972;SDS011;65693;49.798;10.968;2023-04-09T07:30:22;9.10;;;6.38;;
49972;SDS011;65693;49.798;10.968;2023-04-09T07:32:48;8.35;;;6.15;;
49972;SDS011;65693;49.798;10.968;2023-04-09T07:35:14;9.60;;;7.03;;
49972;SDS011;65693;49.798;10.968;2023-04-09T07:37:42;8.65;;;6.28;;
49972;SDS011;65693;49.798;10.968;2023-04-09T07:40:09;8.55;;;6.50;;
49972;SDS011;65693;49.798;10.968;2023-04-09T07:42:36;10.32;;;6.30;;
49972;SDS011;65693;49.798;10.968;2023-04-09T07:45:04;8.77;;;6.32;;
49972;SDS011;65693;49.798;10.968;2023-04-09T07:47:32;10.25;;;6.60;;
49972;SDS011;65693;49.798;10.968;2023-04-09T07:49:58;12.13;;;6.93;;
49972;SDS011;65693;49.798;10.968;2023-04-09T07:52:24;9.20;;;6.60;;
49972;SDS011;65693;49.798;10.968;2023-04-09T07:54:51;9.35;;;6.93;;
49972;SDS011;65693;49.798;10.968;2023-04-09T07:57:17;9.15;;;7.15;;
49972;SDS011;65693;49.798;10.968;2023-04-09T07:59:43;9.20;;;6.88;;
49972;SDS011;65693;49.798;10.968;2023-04-09T08:02:12;9.82;;;6.97;;
49972;SDS011;65693;49.798;10.968;2023-04-09T08:04:38;9.43;;;6.78;;
49972;SDS011;65693;49.798;10.968;2023-04-09T08:07:05;8.55;;;6.30;;
49972;SDS011;65693;49.798;10.968;2023-04-09T08:09:32;9.52;;;6.57;;
49972;SDS011;65693;49.798;10.968;2023-04-09T08:11:58;8.77;;;6.18;;
49972;SDS011;65693;49.798;10.968;2023-04-09T08:14:25;9.77;;;6.88;;
49972;SDS011;65693;49.798;10.968;2023-04-09T08:16:51;8.85;;;6.18;;
49972;SDS011;65693;49.798;10.968;2023-04-09T08:19:19;8.95;;;6.60;;
49972;SDS011;65693;49.798;10.968;2023-04-09T08:21:45;8.18;;;6.25;;
49972;SDS011;65693;49.798;10.968;2023-04-09T08:24:13;8.85;;;5.95;;
49972;SDS011;65693;49.798;10.968;2023-04-09T08:26:45;8.10;;;5.97;;
49972;SDS011;65693;49.798;10.968;2023-04-09T08:29:11;9.25;;;6.63;;
49972;SDS011;65693;49.798;10.968;2023-04-09T08:31:38;8.25;;;6.07;;
49972;SDS011;65693;49.798;10.968;2023-04-09T08:34:05;8.07;;;6.15;;
49972;SDS011;65693;49.798;10.968;2023-04-09T08:36:33;7.60;;;5.80;;
49972;SDS011;65693;49.798;10.968;2023-04-09T08:39:00;9.25;;;6.53;;
49972;SDS011;65693;49.798;10.968;2023-04-09T08:41:26;8.85;;;6.35;;
49972;SDS011;65693;49.798;10.968;2023-04-09T08:43:54;8.85;;;6.65;;
49972;SDS011;65693;49.798;10.968;2023-04-09T08:46:22;8.55;;;6.50;;
49972;SDS011;65693;49.798;10.968;2023-04-09T08:48:50;8.60;;;6.65;;
49972;SDS011;65693;49.798;10.968;2023-04-09T08:51:17;9.18;;;6.47;;
49972;SDS011;65693;49.798;10.968;2023-04-09T08:53:46;9.43;;;7.03;;
49972;SDS011;65693;49.798;10.968;2023-04-09T08:56:16;7.65;;;6.30;;
49972;SDS011;65693;49.798;10.968;2023-04-09T08:58:43;9.77;;;6.00;;
49972;SDS011;65693;49.798;10.968;2023-04-09T09:01:18;7.90;;;5.78;;
49972;SDS011;65693;49.798;10.968;2023-04-09T09:03:55;9.32;;;6.60;;
49972;SDS011;65693;49.798;10.968;2023-04-09T09:06:26;8.57;;;6.47;;
49972;SDS011;65693;49.798;10.968;2023-04-09T09:09:02;7.50;;;5.72;;
49972;SDS011;65693;49.798;10.968;2023-04-09T09:11:30;9.00;;;6.40;;
49972;SDS011;65693;49.798;10.968;2023-04-09T09:13:58;9.13;;;6.60;;
49972;SDS011;65693;49.798;10.968;2023-04-09T09:16:25;8.57;;;5.85;;
49972;SDS011;65693;49.798;10.968;2023-04-09T09:18:52;7.88;;;6.20;;
49972;SDS011;65693;49.798;10.968;2023-04-09T09:21:19;7.90;;;5.80;;
49972;SDS011;65693;49.798;10.968;2023-04-09T09:23:46;7.50;;;5.53;;
49972;SDS011;65693;49.798;10.968;2023-04-09T09:26:16;7.47;;;5.65;;
49972;SDS011;65693;49.798;10.968;2023-04-09T09:28:43;8.48;;;5.65;;
49972;SDS011;65693;49.798;10.968;2023-04-09T09:31:11;8.18;;;5.97;;
49972;SDS011;65693;49.798;10.968;2023-04-09T09:33:38;8.48;;;5.40;;
49972;SDS011;65693;49.798;10.968;2023-04-09T09:36:05;8.60;;;6.20;;
49972;SDS011;65693;49.798;10.968;2023-04-09T09:38:33;8.77;;;5.97;;
49972;SDS011;65693;49.798;10.968;2023-04-09T09:41:16;8.75;;;5.97;;
49972;SDS011;65693;49.798;10.968;2023-04-09T09:43:43;9.02;;;6.53;;
49972;SDS011;65693;49.798;10.968;2023-04-09T09:46:14;7.78;;;5.70;;
49972;SDS011;65693;49.798;10.968;2023-04-09T09:48:42;8.27;;;6.00;;
49972;SDS011;65693;49.798;10.968;2023-04-09T09:51:10;8.13;;;5.90;;
49972;SDS011;65693;49.798;10.968;2023-04-09T09:53:38;7.72;;;5.38;;
49972;SDS011;65693;49.798;10.968;2023-04-09T09:56:11;7.78;;;5.88;;
49972;SDS011;65693;49.798;10.968;2023-04-09T09:58:43;7.85;;;5.55;;
49972;SDS011;65693;49.798;10.968;2023-04-09T10:01:14;8.05;;;5.45;;
49972;SDS011;65693;49.798;10.968;2023-04-09T10:03:44;7.80;;;5.63;;
49972;SDS011;65693;49.798;10.968;2023-04-09T10:06:12;8.27;;;6.07;;
49972;SDS011;65693;49.798;10.968;2023-04-09T10:08:39;8.23;;;5.75;;
49972;SDS011;65693;49.798;10.968;2023-04-09T10:11:07;7.90;;;6.00;;
49972;SDS011;65693;49.798;10.968;2023-04-09T10:13:34;7.57;;;5.65;;
49972;SDS011;65693;49.798;10.968;2023-04-09T10:16:06;7.28;;;5.55;;
49972;SDS011;65693;49.798;10.968;2023-04-09T10:18:33;7.65;;;5.57;;
49972;SDS011;65693;49.798;10.968;2023-04-09T10:21:02;8.18;;;5.75;;
49972;SDS011;65693;49.798;10.968;2023-04-09T10:23:37;7.93;;;6.10;;
49972;SDS011;65693;49.798;10.968;2023-04-09T10:26:05;8.00;;;5.93;;
49972;SDS011;65693;49.798;10.968;2023-04-09T10:28:33;8.10;;;5.63;;
49972;SDS011;65693;49.798;10.968;2023-04-09T10:30:59;8.50;;;5.70;;
49972;SDS011;65693;49.798;10.968;2023-04-09T10:33:28;7.93;;;5.65;;
49972;SDS011;65693;49.798;10.968;2023-04-09T10:35:55;7.85;;;5.85;;
49972;SDS011;65693;49.798;10.968;2023-04-09T10:38:34;8.95;;;5.82;;
49972;SDS011;65693;49.798;10.968;2023-04-09T10:41:06;8.75;;;5.68;;
49972;SDS011;65693;49.798;10.968;2023-04-09T10:43:33;6.97;;;5.40;;
49972;SDS011;65693;49.798;10.968;2023-04-09T10:46:03;7.53;;;5.80;;
49972;SDS011;65693;49.798;10.968;2023-04-09T10:48:32;7.35;;;5.72;;
49972;SDS011;65693;49.798;10.968;2023-04-09T10:51:01;8.32;;;5.80;;
49972;SDS011;65693;49.798;10.968;2023-04-09T10:53:30;8.23;;;5.80;;
49972;SDS011;65693;49.798;10.968;2023-04-09T10:55:57;7.82;;;5.82;;
49972;SDS011;65693;49.798;10.968;2023-04-09T10:58:25;8.07;;;5.55;;
49972;SDS011;65693;49.798;10.968;2023-04-09T11:00:52;7.70;;;5.35;;
49972;SDS011;65693;49.798;10.968;2023-04-09T11:03:20;7.22;;;5.50;;
49972;SDS011;65693;49.798;10.968;2023-04-09T11:05:51;7.20;;;5.03;;
49972;SDS011;65693;49.798;10.968;2023-04-09T11:08:20;8.30;;;6.03;;
49972;SDS011;65693;49.798;10.968;2023-04-09T11:10:47;6.97;;;5.13;;
49972;SDS011;65693;49.798;10.968;2023-04-09T11:13:14;7.78;;;5.65;;
49972;SDS011;65693;49.798;10.968;2023-04-09T11:15:42;8.35;;;5.95;;
49972;SDS011;65693;49.798;10.968;2023-04-09T11:18:12;7.82;;;5.80;;
49972;SDS011;65693;49.798;10.968;2023-04-09T11:20:39;8.10;;;6.22;;
49972;SDS011;65693;49.798;10.968;2023-04-09T11:23:07;7.82;;;5.80;;
49972;SDS011;65693;49.798;10.968;2023-04-09T11:25:35;7.53;;;5.55;;
49972;SDS011;65693;49.798;10.968;2023-04-09T11:28:02;8.00;;;6.43;;
49972;SDS011;65693;49.798;10.968;2023-04-09T11:30:30;7.80;;;5.72;;
49972;SDS011;65693;49.798;10.968;2023-04-09T11:32:58;9.60;;;6.15;;
49972;SDS011;65693;49.798;10.968;2023-04-09T11:35:25;7.80;;;5.53;;
49972;SDS011;65693;49.798;10.968;2023-04-09T11:37:51;8.02;;;5.93;;
49972;SDS011;65693;49.798;10.968;2023-04-09T11:40:20;7.07;;;5.57;;
49972;SDS011;65693;49.798;10.968;2023-04-09T11:42:48;7.38;;;5.13;;
49972;SDS011;65693;49.798;10.968;2023-04-09T11:45:15;7.40;;;5.50;;
49972;SDS011;65693;49.798;10.968;2023-04-09T11:47:43;7.13;;;5.30;;
49972;SDS011;65693;49.798;10.968;2023-04-09T11:50:11;8.38;;;5.72;;
49972;SDS011;65693;49.798;10.968;2023-04-09T11:52:38;7.57;;;5.47;;
49972;SDS011;65693;49.798;10.968;2023-04-09T11:55:06;8.48;;;5.80;;
49972;SDS011;65693;49.798;10.968;2023-04-09T11:57:41;7.75;;;5.50;;
49972;SDS011;65693;49.798;10.968;2023-04-09T12:00:09;7.05;;;5.13;;
49972;SDS011;65693;49.798;10.968;2023-04-09T12:02:38;7.45;;;5.40;;
49972;SDS011;65693;49.798;10.968;2023-04-09T12:05:06;7.45;;;5.10;;
49972;SDS011;65693;49.798;10.968;2023-04-09T12:07:34;7.47;;;5.50;;
49972;SDS011;65693;49.798;10.968;2023-04-09T12:10:03;8.07;;;5.75;;
49972;SDS011;65693;49.798;10.968;2023-04-09T12:12:30;7.38;;;5.38;;
49972;SDS011;65693;49.798;10.968;2023-04-09T12:14:58;8.18;;;5.85;;
49972;SDS011;65693;49.798;10.968;2023-04-09T12:17:35;7.57;;;5.55;;
49972;SDS011;65693;49.798;10.968;2023-04-09T12:20:01;8.05;;;5.78;;
49972;SDS011;65693;49.798;10.968;2023-04-09T12:22:28;7.18;;;5.50;;
49972;SDS011;65693;49.798;10.968;2023-04-09T12:24:54;7.45;;;5.32;;
49972;SDS011;65693;49.798;10.968;2023-04-09T12:27:20;7.05;;;5.35;;
49972;SDS011;65693;49.798;10.968;2023-04-09T12:29:47;7.57;;;5.55;;
49972;SDS011;65693;49.798;10.968;2023-04-09T12:32:15;8.95;;;5.85;;
49972;SDS011;65693;49.798;10.968;2023-04-09T12:34:41;7.78;;;5.30;;
49972;SDS011;65693;49.798;10.968;2023-04-09T12:37:07;7.90;;;5.47;;
49972;SDS011;65693;49.798;10.968;2023-04-09T12:39:34;7.45;;;5.50;;
49972;SDS011;65693;49.798;10.968;2023-04-09T12:42:01;7.00;;;5.13;;
49972;SDS011;65693;49.798;10.968;2023-04-09T12:44:27;7.28;;;5.05;;
49972;SDS011;65693;49.798;10.968;2023-04-09T12:46:54;7.95;;;5.50;;
49972;SDS011;65693;49.798;10.968;2023-04-09T12:49:21;6.85;;;5.32;;
49972;SDS011;65693;49.798;10.968;2023-04-09T12:51:48;6.65;;;5.10;;
49972;SDS011;65693;49.798;10.968;2023-04-09T12:54:15;7.45;;;5.22;;
49972;SDS011;65693;49.798;10.968;2023-04-09T12:56:42;7.07;;;5.32;;
49972;SDS011;65693;49.798;10.968;2023-04-09T12:59:08;7.07;;;5.30;;
49972;SDS011;65693;49.798;10.968;2023-04-09T13:01:35;7.25;;;5.22;;
49972;SDS011;65693;49.798;10.968;2023-04-09T13:04:01;7.68;;;5.38;;
49972;SDS011;65693;49.798;10.968;2023-04-09T13:06:29;7.07;;;5.50;;
49972;SDS011;65693;49.798;10.968;2023-04-09T13:08:55;6.82;;;5.18;;
49972;SDS011;65693;49.798;10.968;2023-04-09T13:11:22;7.72;;;5.60;;
49972;SDS011;65693;49.798;10.968;2023-04-09T13:13:48;7.40;;;5.28;;
49972;SDS011;65693;49.798;10.968;2023-04-09T13:16:16;7.45;;;5.30;;
49972;SDS011;65693;49.798;10.968;2023-04-09T13:18:42;6.32;;;5.15;;
49972;SDS011;65693;49.798;10.968;2023-04-09T13:21:08;7.93;;;5.75;;
49972;SDS011;65693;49.798;10.968;2023-04-09T13:23:38;7.30;;;5.50;;
49972;SDS011;65693;49.798;10.968;2023-04-09T13:26:04;7.18;;;5.18;;
49972;SDS011;65693;49.798;10.968;2023-04-09T13:28:31;9.80;;;5.95;;
49972;SDS011;65693;49.798;10.968;2023-04-09T13:30:57;7.20;;;5.30;;
49972;SDS011;65693;49.798;10.968;2023-04-09T13:33:24;6.95;;;4.93;;
49972;SDS011;65693;49.798;10.968;2023-04-09T13:35:51;7.00;;;5.05;;
49972;SDS011;65693;49.798;10.968;2023-04-09T13:38:17;7.60;;;5.00;;
49972;SDS011;65693;49.798;10.968;2023-04-09T13:40:45;6.40;;;4.85;;
49972;SDS011;65693;49.798;10.968;2023-04-09T13:43:11;6.97;;;4.95;;
49972;SDS011;65693;49.798;10.968;2023-04-09T13:45:38;6.57;;;5.18;;
49972;SDS011;65693;49.798;10.968;2023-04-09T13:48:05;8.13;;;5.32;;
49972;SDS011;65693;49.798;10.968;2023-04-09T13:50:31;7.45;;;5.25;;
49972;SDS011;65693;49.798;10.968;2023-04-09T13:52:58;6.95;;;5.53;;
49972;SDS011;65693;49.798;10.968;2023-04-09T13:55:26;7.53;;;5.47;;
49972;SDS011;65693;49.798;10.968;2023-04-09T13:57:56;8.45;;;5.78;;
49972;SDS011;65693;49.798;10.968;2023-04-09T14:00:22;5.97;;;4.45;;
49972;SDS011;65693;49.798;10.968;2023-04-09T14:02:49;8.15;;;5.72;;
49972;SDS011;65693;49.798;10.968;2023-04-09T14:05:15;6.68;;;5.00;;
49972;SDS011;65693;49.798;10.968;2023-04-09T14:07:42;7.85;;;5.20;;
49972;SDS011;65693;49.798;10.968;2023-04-09T14:10:08;7.32;;;5.07;;
49972;SDS011;65693;49.798;10.968;2023-04-09T14:12:36;6.40;;;4.78;;
49972;SDS011;65693;49.798;10.968;2023-04-09T14:15:04;7.15;;;5.03;;
49972;SDS011;65693;49.798;10.968;2023-04-09T14:17:31;6.75;;;5.00;;
49972;SDS011;65693;49.798;10.968;2023-04-09T14:19:58;7.47;;;5.20;;
49972;SDS011;65693;49.798;10.968;2023-04-09T14:22:27;6.93;;;5.28;;
49972;SDS011;65693;49.798;10.968;2023-04-09T14:24:54;6.47;;;4.90;;
49972;SDS011;65693;49.798;10.968;2023-04-09T14:27:20;7.68;;;5.50;;
49972;SDS011;65693;49.798;10.968;2023-04-09T14:29:46;7.95;;;5.60;;
49972;SDS011;65693;49.798;10.968;2023-04-09T14:32:14;6.50;;;4.80;;
49972;SDS011;65693;49.798;10.968;2023-04-09T14:34:41;6.97;;;5.10;;